Time;durP1;ratioP1;P1;durP2;ratioP2;P2;SDS_P1;SDS_P2;PMS_P1;PMS_P2;Temp;Humidity;BMP_temperature;BMP_pressure;BME280_temperature;BME280_humidity;BME280_pressure;Samples;Min_cycle;Max_cycle;Signal;HPM_P1;HPM_P2
2023/07/31 00:01:49;;;;;;;11.27;3.17;;;;;;;;;;5020879;28;20511;-67
2023/07/31 00:04:15;;;;;;;12.43;3.10;;;;;;;;;;5022911;28;20068;-70
2023/07/31 00:06:41;;;;;;;12.20;3.45;;;;;;;;;;5022977;28;20055;-67
2023/07/31 00:09:07;;;;;;;10.52;3.42;;;;;;;;;;5023185;28;20068;-69
2023/07/31 00:11:33;;;;;;;12.10;2.95;;;;;;;;;;5021056;28;20440;-72
2023/07/31 00:13:59;;;;;;;12.27;3.15;;;;;;;;;;5023478;28;20502;-66
2023/07/31 00:16:25;;;;;;;13.30;2.80;;;;;;;;;;5019620;28;20050;-69
2023/07/31 00:18:50;;;;;;;9.48;3.13;;;;;;;;;;5022792;28;20049;-68
2023/07/31 00:21:16;;;;;;;10.27;2.90;;;;;;;;;;5023060;28;20060;-69
2023/07/31 00:23:42;;;;;;;11.30;3.00;;;;;;;;;;5021696;28;20045;-70
2023/07/31 00:26:08;;;;;;;10.30;3.15;;;;;;;;;;5024300;28;20402;-71
2023/07/31 00:28:34;;;;;;;11.93;2.97;;;;;;;;;;5021954;28;20206;-70
2023/07/31 00:31:01;;;;;;;11.98;3.22;;;;;;;;;;5022198;28;20046;-71
2023/07/31 00:33:27;;;;;;;9.07;3.08;;;;;;;;;;5023860;28;20050;-70
2023/07/31 00:35:53;;;;;;;9.18;2.65;;;;;;;;;;5025767;28;20574;-71
2023/07/31 00:38:19;;;;;;;17.45;3.40;;;;;;;;;;5024131;28;20063;-71
2023/07/31 00:40:45;;;;;;;8.25;2.88;;;;;;;;;;5021264;28;20057;-71
2023/07/31 00:43:11;;;;;;;10.45;3.08;;;;;;;;;;5021000;28;20049;-71
2023/07/31 00:45:37;;;;;;;14.02;3.40;;;;;;;;;;5024954;28;20091;-69
2023/07/31 00:48:06;;;;;;;11.35;3.00;;;;;;;;;;5022017;28;20137;-70
2023/07/31 00:50:33;;;;;;;10.52;3.28;;;;;;;;;;5020773;28;20053;-70
2023/07/31 00:52:59;;;;;;;13.18;3.45;;;;;;;;;;5022015;28;20407;-69
2023/07/31 00:55:25;;;;;;;10.13;2.92;;;;;;;;;;5023505;28;20049;-70
2023/07/31 00:57:52;;;;;;;12.63;3.05;;;;;;;;;;5021918;28;20053;-70
2023/07/31 01:00:19;;;;;;;16.75;2.95;;;;;;;;;;5020870;28;20355;-71
2023/07/31 01:02:44;;;;;;;11.35;3.08;;;;;;;;;;5023721;28;20455;-70
2023/07/31 01:05:10;;;;;;;10.82;3.25;;;;;;;;;;5026511;28;20132;-70
2023/07/31 01:07:47;;;;;;;9.48;3.20;;;;;;;;;;5025023;28;20133;-67
2023/07/31 01:10:21;;;;;;;9.60;3.20;;;;;;;;;;5023665;28;20053;-71
2023/07/31 01:12:48;;;;;;;14.73;3.65;;;;;;;;;;5024995;28;20050;-68
2023/07/31 01:15:15;;;;;;;11.23;3.33;;;;;;;;;;5027589;28;20487;-69
2023/07/31 01:17:41;;;;;;;13.10;3.72;;;;;;;;;;5023530;28;20053;-70
2023/07/31 01:20:14;;;;;;;9.25;2.97;;;;;;;;;;5025716;28;20515;-69
2023/07/31 01:22:40;;;;;;;11.50;3.25;;;;;;;;;;5025958;28;20063;-69
2023/07/31 01:25:27;;;;;;;11.88;3.28;;;;;;;;;;5024066;28;20506;-69
2023/07/31 01:28:05;;;;;;;12.55;3.55;;;;;;;;;;5025345;28;20054;-70
2023/07/31 01:30:35;;;;;;;14.50;3.45;;;;;;;;;;5025145;28;20510;-69
2023/07/31 01:33:06;;;;;;;11.02;3.05;;;;;;;;;;5025452;28;20061;-72
2023/07/31 01:35:34;;;;;;;10.43;3.47;;;;;;;;;;5026964;28;20124;-70
2023/07/31 01:38:00;;;;;;;16.60;3.75;;;;;;;;;;5026757;28;20054;-69
2023/07/31 01:40:26;;;;;;;11.57;3.55;;;;;;;;;;5025250;28;20061;-69
2023/07/31 01:42:52;;;;;;;8.75;3.17;;;;;;;;;;5026112;28;20118;-70
2023/07/31 01:45:18;;;;;;;11.90;3.38;;;;;;;;;;5025440;28;20053;-69
2023/07/31 01:47:44;;;;;;;14.90;3.53;;;;;;;;;;5026307;28;20057;-69
2023/07/31 01:50:10;;;;;;;7.07;2.95;;;;;;;;;;5024567;28;20058;-68
2023/07/31 01:52:36;;;;;;;9.90;3.15;;;;;;;;;;5024928;28;20367;-70
2023/07/31 01:55:02;;;;;;;10.43;3.50;;;;;;;;;;5025792;28;20049;-67
2023/07/31 01:57:28;;;;;;;6.72;2.90;;;;;;;;;;5022023;28;20128;-68
2023/07/31 01:59:54;;;;;;;10.48;3.20;;;;;;;;;;5025723;28;20053;-69
2023/07/31 02:02:20;;;;;;;9.82;3.03;;;;;;;;;;5023130;28;20044;-69
2023/07/31 02:04:47;;;;;;;10.77;3.03;;;;;;;;;;5024117;28;20061;-68
2023/07/31 02:07:13;;;;;;;8.13;3.13;;;;;;;;;;5027167;28;20099;-72
2023/07/31 02:09:39;;;;;;;11.73;3.50;;;;;;;;;;5023781;28;20057;-71
2023/07/31 02:12:05;;;;;;;14.00;3.22;;;;;;;;;;5024387;28;20123;-70
2023/07/31 02:14:32;;;;;;;10.63;3.33;;;;;;;;;;5024683;28;20057;-70
2023/07/31 02:16:57;;;;;;;13.75;3.50;;;;;;;;;;5023326;28;20056;-70
2023/07/31 02:19:23;;;;;;;11.43;3.25;;;;;;;;;;5024608;28;20061;-70
2023/07/31 02:21:49;;;;;;;12.40;3.13;;;;;;;;;;5024311;28;20503;-70
2023/07/31 02:24:15;;;;;;;13.88;3.80;;;;;;;;;;5022160;28;20418;-72
2023/07/31 02:26:42;;;;;;;10.52;3.38;;;;;;;;;;5023494;28;20056;-70
2023/07/31 02:29:08;;;;;;;10.35;3.30;;;;;;;;;;5018860;28;20084;-69
2023/07/31 02:31:34;;;;;;;14.27;3.70;;;;;;;;;;5018232;28;20065;-69
2023/07/31 02:34:00;;;;;;;11.00;3.67;;;;;;;;;;5029884;28;20107;-70
2023/07/31 02:36:26;;;;;;;12.57;3.60;;;;;;;;;;5025247;28;20422;-70
2023/07/31 02:38:52;;;;;;;11.52;4.07;;;;;;;;;;5029561;28;20050;-70
2023/07/31 02:41:17;;;;;;;12.38;3.65;;;;;;;;;;5020856;28;20045;-69
2023/07/31 02:43:43;;;;;;;13.05;3.40;;;;;;;;;;5026036;28;20050;-70
2023/07/31 02:46:09;;;;;;;15.95;3.60;;;;;;;;;;5026654;28;20053;-70
2023/07/31 02:48:36;;;;;;;10.27;3.40;;;;;;;;;;5026570;28;20053;-70
2023/07/31 02:51:02;;;;;;;11.43;3.45;;;;;;;;;;5023248;28;20057;-69
2023/07/31 02:53:28;;;;;;;12.57;3.22;;;;;;;;;;5023909;28;20059;-70
2023/07/31 02:55:54;;;;;;;10.73;3.22;;;;;;;;;;5024180;28;20053;-70
2023/07/31 02:58:20;;;;;;;11.18;3.40;;;;;;;;;;5039945;28;20106;-70
2023/07/31 03:00:46;;;;;;;9.98;3.75;;;;;;;;;;5020332;28;20061;-70
2023/07/31 03:03:12;;;;;;;12.15;3.33;;;;;;;;;;5023941;28;20568;-71
2023/07/31 03:05:37;;;;;;;11.05;3.40;;;;;;;;;;5025673;28;20045;-69
2023/07/31 03:08:04;;;;;;;12.43;3.22;;;;;;;;;;5023772;28;20049;-70
2023/07/31 03:10:30;;;;;;;13.18;3.50;;;;;;;;;;5022248;28;20053;-70
2023/07/31 03:12:56;;;;;;;9.73;3.30;;;;;;;;;;5020740;28;20046;-69
2023/07/31 03:15:21;;;;;;;10.95;3.40;;;;;;;;;;5025083;28;20514;-71
2023/07/31 03:17:47;;;;;;;9.23;3.45;;;;;;;;;;5023844;28;20050;-69
2023/07/31 03:20:13;;;;;;;16.25;3.90;;;;;;;;;;5024737;28;20400;-71
2023/07/31 03:22:39;;;;;;;12.18;3.20;;;;;;;;;;5022483;28;20083;-69
2023/07/31 03:25:05;;;;;;;11.68;3.08;;;;;;;;;;5025337;28;20511;-69
2023/07/31 03:27:31;;;;;;;11.30;3.25;;;;;;;;;;5023864;28;20049;-70
2023/07/31 03:29:57;;;;;;;9.50;3.10;;;;;;;;;;5025669;28;20041;-70
2023/07/31 03:32:23;;;;;;;11.25;3.47;;;;;;;;;;5021133;28;20099;-70
2023/07/31 03:34:49;;;;;;;11.90;3.22;;;;;;;;;;5021731;28;20045;-70
2023/07/31 03:37:15;;;;;;;11.18;3.45;;;;;;;;;;5024762;28;20088;-69
2023/07/31 03:39:41;;;;;;;14.40;3.42;;;;;;;;;;5021634;28;20656;-71
2023/07/31 03:42:07;;;;;;;10.57;2.88;;;;;;;;;;5021371;28;20057;-70
2023/07/31 03:44:33;;;;;;;12.32;3.25;;;;;;;;;;5024440;28;20116;-69
2023/07/31 03:46:59;;;;;;;7.75;3.00;;;;;;;;;;5024265;28;20064;-70
2023/07/31 03:49:25;;;;;;;11.20;3.40;;;;;;;;;;5025054;28;20049;-69
2023/07/31 03:51:51;;;;;;;9.63;2.92;;;;;;;;;;5021651;28;20053;-69
2023/07/31 03:54:17;;;;;;;10.43;3.95;;;;;;;;;;5054178;28;20049;-69
2023/07/31 03:56:43;;;;;;;8.65;3.13;;;;;;;;;;5022919;28;20061;-70
2023/07/31 03:59:09;;;;;;;9.32;3.42;;;;;;;;;;5023108;28;20427;-69
2023/07/31 04:01:35;;;;;;;10.43;3.45;;;;;;;;;;5020089;28;20061;-71
2023/07/31 04:04:01;;;;;;;11.65;3.72;;;;;;;;;;5023448;28;20602;-68
2023/07/31 04:06:27;;;;;;;10.57;3.45;;;;;;;;;;5024264;28;20049;-70
2023/07/31 04:08:52;;;;;;;20.73;4.10;;;;;;;;;;5023566;28;20430;-70
2023/07/31 04:11:19;;;;;;;12.85;3.70;;;;;;;;;;5018737;28;20116;-70
2023/07/31 04:13:44;;;;;;;12.15;3.60;;;;;;;;;;5023512;28;20092;-72
2023/07/31 04:16:10;;;;;;;10.65;3.30;;;;;;;;;;5021572;28;20049;-70
2023/07/31 04:18:37;;;;;;;9.10;3.20;;;;;;;;;;5022919;28;20068;-70
2023/07/31 04:21:03;;;;;;;12.27;3.58;;;;;;;;;;5020874;28;20049;-68
2023/07/31 04:23:29;;;;;;;10.98;3.58;;;;;;;;;;5021611;28;20467;-70
2023/07/31 04:25:55;;;;;;;8.93;3.25;;;;;;;;;;5020982;28;20061;-71
2023/07/31 04:28:21;;;;;;;13.57;3.28;;;;;;;;;;5020651;28;20053;-69
2023/07/31 04:30:47;;;;;;;11.73;4.18;;;;;;;;;;5023579;28;20096;-70
2023/07/31 04:33:13;;;;;;;13.82;3.42;;;;;;;;;;5021978;28;20099;-69
2023/07/31 04:35:39;;;;;;;8.82;3.15;;;;;;;;;;5021810;28;20491;-69
2023/07/31 04:38:05;;;;;;;14.32;3.55;;;;;;;;;;5022624;28;20064;-69
2023/07/31 04:40:31;;;;;;;10.80;3.45;;;;;;;;;;5026995;28;20061;-70
2023/07/31 04:42:57;;;;;;;10.50;3.47;;;;;;;;;;5026459;28;20053;-69
2023/07/31 04:45:23;;;;;;;8.57;3.40;;;;;;;;;;5025217;28;20057;-71
2023/07/31 04:47:49;;;;;;;6.18;2.90;;;;;;;;;;5026409;28;20424;-71
2023/07/31 04:50:15;;;;;;;12.00;3.47;;;;;;;;;;5025534;28;20049;-70
2023/07/31 04:52:41;;;;;;;12.93;3.30;;;;;;;;;;5024583;28;20426;-69
2023/07/31 04:55:07;;;;;;;15.15;3.78;;;;;;;;;;5026402;28;20053;-72
2023/07/31 04:57:33;;;;;;;15.05;4.00;;;;;;;;;;5024868;28;20514;-71
2023/07/31 04:59:59;;;;;;;10.43;3.45;;;;;;;;;;5026922;28;20053;-70
2023/07/31 05:02:24;;;;;;;7.25;3.58;;;;;;;;;;5026546;28;20053;-70
2023/07/31 05:04:51;;;;;;;13.00;3.85;;;;;;;;;;5027714;28;20124;-70
2023/07/31 05:07:17;;;;;;;15.57;4.90;;;;;;;;;;5022847;28;20602;-68
2023/07/31 05:09:43;;;;;;;15.68;5.15;;;;;;;;;;5027930;28;23062;-70
2023/07/31 05:12:09;;;;;;;18.55;4.80;;;;;;;;;;5026108;28;20100;-69
2023/07/31 05:14:35;;;;;;;13.95;4.45;;;;;;;;;;5027289;28;20045;-70
2023/07/31 05:17:00;;;;;;;14.40;3.97;;;;;;;;;;5025589;28;20041;-69
2023/07/31 05:19:26;;;;;;;14.25;5.10;;;;;;;;;;5027905;28;20057;-70
2023/07/31 05:21:52;;;;;;;13.80;4.72;;;;;;;;;;5023272;28;20053;-72
2023/07/31 05:24:18;;;;;;;15.60;4.85;;;;;;;;;;5027648;28;20049;-69
2023/07/31 05:26:44;;;;;;;18.95;6.03;;;;;;;;;;5024064;28;20601;-69
2023/07/31 05:29:10;;;;;;;18.58;5.35;;;;;;;;;;5023354;28;20430;-70
2023/07/31 05:31:38;;;;;;;17.88;5.40;;;;;;;;;;5024443;28;20056;-69
2023/07/31 05:34:04;;;;;;;17.52;5.32;;;;;;;;;;5028306;28;20053;-69
2023/07/31 05:36:30;;;;;;;18.63;5.10;;;;;;;;;;5026666;28;20504;-69
2023/07/31 05:38:56;;;;;;;14.20;4.95;;;;;;;;;;5025572;28;20499;-69
2023/07/31 05:41:22;;;;;;;13.52;4.70;;;;;;;;;;5023706;28;20057;-70
2023/07/31 05:43:49;;;;;;;10.10;4.07;;;;;;;;;;5026310;28;20426;-69
2023/07/31 05:46:15;;;;;;;16.20;4.70;;;;;;;;;;5027760;28;20081;-71
2023/07/31 05:48:41;;;;;;;12.98;5.07;;;;;;;;;;5027147;28;20114;-71
2023/07/31 05:51:07;;;;;;;10.57;4.50;;;;;;;;;;5026005;28;20045;-71
2023/07/31 05:53:33;;;;;;;15.48;4.60;;;;;;;;;;5023496;28;20049;-70
2023/07/31 05:55:59;;;;;;;16.55;4.70;;;;;;;;;;5026471;28;20144;-70
2023/07/31 05:58:25;;;;;;;16.52;4.63;;;;;;;;;;5026016;28;20114;-70
2023/07/31 06:00:51;;;;;;;15.40;5.30;;;;;;;;;;5054830;28;20070;-70
2023/07/31 06:03:18;;;;;;;20.60;4.93;;;;;;;;;;5025009;28;20517;-68
2023/07/31 06:05:43;;;;;;;17.50;5.30;;;;;;;;;;5025475;28;20446;-70
2023/07/31 06:08:09;;;;;;;14.85;4.82;;;;;;;;;;5028887;28;20513;-70
2023/07/31 06:10:35;;;;;;;10.77;4.90;;;;;;;;;;5025502;28;20057;-70
2023/07/31 06:13:02;;;;;;;17.17;4.95;;;;;;;;;;5021468;28;20053;-71
2023/07/31 06:15:27;;;;;;;17.30;4.63;;;;;;;;;;5026280;28;20052;-69
2023/07/31 06:17:53;;;;;;;14.98;4.95;;;;;;;;;;5025678;28;20486;-71
2023/07/31 06:20:19;;;;;;;14.30;4.60;;;;;;;;;;5026707;28;20052;-71
2023/07/31 06:22:45;;;;;;;13.05;4.32;;;;;;;;;;5028603;28;20056;-70
2023/07/31 06:25:12;;;;;;;14.68;4.68;;;;;;;;;;5025337;28;20495;-71
2023/07/31 06:27:38;;;;;;;13.23;4.70;;;;;;;;;;5023102;28;20072;-71
2023/07/31 06:30:04;;;;;;;14.05;4.47;;;;;;;;;;5025258;28;20544;-72
2023/07/31 06:32:30;;;;;;;15.43;4.45;;;;;;;;;;5028215;28;20503;-70
2023/07/31 06:34:56;;;;;;;15.15;4.90;;;;;;;;;;5025556;28;20059;-72
2023/07/31 06:37:22;;;;;;;12.90;4.97;;;;;;;;;;5022646;28;20574;-69
2023/07/31 06:39:48;;;;;;;13.55;4.60;;;;;;;;;;5026037;28;20046;-73
2023/07/31 06:42:14;;;;;;;16.08;5.45;;;;;;;;;;5020850;28;20129;-68
2023/07/31 06:44:40;;;;;;;16.88;4.95;;;;;;;;;;5029019;28;20148;-68
2023/07/31 06:47:09;;;;;;;19.20;4.82;;;;;;;;;;5022180;28;20418;-69
2023/07/31 06:49:35;;;;;;;11.13;5.13;;;;;;;;;;5031027;28;20042;-70
2023/07/31 06:52:01;;;;;;;10.23;4.18;;;;;;;;;;5025354;28;20048;-68
2023/07/31 06:54:26;;;;;;;18.70;4.55;;;;;;;;;;5026771;28;20049;-68
2023/07/31 06:56:52;;;;;;;16.67;4.70;;;;;;;;;;5024063;28;20499;-69
2023/07/31 06:59:18;;;;;;;15.18;4.70;;;;;;;;;;5026610;28;20108;-67
2023/07/31 07:01:44;;;;;;;10.80;4.05;;;;;;;;;;5019434;28;20513;-68
2023/07/31 07:04:10;;;;;;;15.50;4.38;;;;;;;;;;5026387;28;20053;-69
2023/07/31 07:06:36;;;;;;;18.63;4.20;;;;;;;;;;5018304;28;20507;-70
2023/07/31 07:09:03;;;;;;;15.60;4.97;;;;;;;;;;5027580;28;20076;-68
2023/07/31 07:11:30;;;;;;;16.45;5.10;;;;;;;;;;5026738;28;20103;-69
2023/07/31 07:13:56;;;;;;;15.63;5.07;;;;;;;;;;5021694;28;20080;-68
2023/07/31 07:16:22;;;;;;;15.32;4.47;;;;;;;;;;5031144;28;20124;-68
2023/07/31 07:18:48;;;;;;;16.40;5.15;;;;;;;;;;5028210;28;20099;-67
2023/07/31 07:21:15;;;;;;;19.88;4.65;;;;;;;;;;5022135;28;20071;-68
2023/07/31 07:23:42;;;;;;;13.65;4.22;;;;;;;;;;5031324;28;20454;-67
2023/07/31 07:26:08;;;;;;;15.10;4.38;;;;;;;;;;5030616;28;20057;-69
2023/07/31 07:28:34;;;;;;;14.05;4.32;;;;;;;;;;5020184;28;20111;-68
2023/07/31 07:31:00;;;;;;;16.40;4.32;;;;;;;;;;5024401;28;20053;-70
2023/07/31 07:33:26;;;;;;;16.35;5.10;;;;;;;;;;5022112;28;20052;-69
2023/07/31 07:35:52;;;;;;;9.95;4.57;;;;;;;;;;5021145;28;20525;-67
2023/07/31 07:38:19;;;;;;;16.83;4.93;;;;;;;;;;5021037;28;20049;-65
2023/07/31 07:40:46;;;;;;;13.02;4.57;;;;;;;;;;5022575;28;20057;-67
2023/07/31 07:43:12;;;;;;;17.35;4.35;;;;;;;;;;5052309;28;20053;-67
2023/07/31 07:45:38;;;;;;;14.15;4.80;;;;;;;;;;5014342;28;20056;-66
2023/07/31 07:48:04;;;;;;;15.10;4.65;;;;;;;;;;5019297;28;20951;-65
2023/07/31 07:50:31;;;;;;;20.95;5.53;;;;;;;;;;5030215;28;20734;-66
2023/07/31 07:52:57;;;;;;;14.43;4.38;;;;;;;;;;5023677;28;20041;-66
2023/07/31 07:55:23;;;;;;;21.88;5.47;;;;;;;;;;5022021;28;20416;-67
2023/07/31 07:57:50;;;;;;;13.13;4.15;;;;;;;;;;5010809;28;20059;-66
2023/07/31 08:00:17;;;;;;;14.55;4.10;;;;;;;;;;5014592;28;20068;-69
2023/07/31 08:02:43;;;;;;;10.40;3.15;;;;;;;;;;5019416;28;20068;-65
2023/07/31 08:05:09;;;;;;;11.55;3.30;;;;;;;;;;5020299;28;21174;-69
2023/07/31 08:07:35;;;;;;;11.25;3.15;;;;;;;;;;5021470;28;20577;-65
2023/07/31 08:10:01;;;;;;;10.98;3.20;;;;;;;;;;5021745;28;20414;-67
2023/07/31 08:12:27;;;;;;;14.55;3.15;;;;;;;;;;5023074;28;20053;-66
2023/07/31 08:14:53;;;;;;;14.20;3.17;;;;;;;;;;5020440;28;20054;-67
2023/07/31 08:17:19;;;;;;;12.93;3.10;;;;;;;;;;5020901;28;20114;-66
2023/07/31 08:19:46;;;;;;;12.07;3.05;;;;;;;;;;5022118;28;20107;-65
2023/07/31 08:22:11;;;;;;;12.77;2.70;;;;;;;;;;5019072;28;20411;-65
2023/07/31 08:24:37;;;;;;;7.90;2.67;;;;;;;;;;5019474;28;20068;-66
2023/07/31 08:27:05;;;;;;;11.43;3.05;;;;;;;;;;5013325;28;20366;-66
2023/07/31 08:29:32;;;;;;;14.07;3.00;;;;;;;;;;5014573;28;20124;-66
2023/07/31 08:31:58;;;;;;;13.65;3.03;;;;;;;;;;5025113;28;20081;-66
2023/07/31 08:34:24;;;;;;;15.68;3.00;;;;;;;;;;5022546;28;20064;-67
2023/07/31 08:36:49;;;;;;;12.20;2.92;;;;;;;;;;5016015;28;20058;-68
2023/07/31 08:39:15;;;;;;;12.10;3.00;;;;;;;;;;5019447;28;20042;-67
2023/07/31 08:41:41;;;;;;;10.82;3.17;;;;;;;;;;5022629;28;20127;-70
2023/07/31 08:44:08;;;;;;;10.52;3.05;;;;;;;;;;5013476;28;20131;-68
2023/07/31 08:46:34;;;;;;;13.43;3.20;;;;;;;;;;5026446;28;20128;-65
2023/07/31 08:49:05;;;;;;;12.68;3.42;;;;;;;;;;5018473;28;20053;-65
2023/07/31 08:51:35;;;;;;;10.02;3.33;;;;;;;;;;5017192;28;20049;-66
2023/07/31 08:54:03;;;;;;;13.32;3.33;;;;;;;;;;5022538;28;20046;-66
2023/07/31 08:56:31;;;;;;;8.63;3.00;;;;;;;;;;5023834;28;20056;-66
2023/07/31 08:59:01;;;;;;;14.00;3.20;;;;;;;;;;5019378;28;20076;-66
2023/07/31 09:01:30;;;;;;;12.23;3.35;;;;;;;;;;5017925;28;20055;-67
2023/07/31 09:04:00;;;;;;;9.38;3.15;;;;;;;;;;5027494;28;20071;-65
2023/07/31 09:06:29;;;;;;;9.63;3.38;;;;;;;;;;5026483;28;20499;-67
2023/07/31 09:08:55;;;;;;;12.02;3.85;;;;;;;;;;5023780;28;20750;-66
2023/07/31 09:11:21;;;;;;;16.15;4.03;;;;;;;;;;5023501;28;20124;-65
2023/07/31 09:13:48;;;;;;;13.65;4.18;;;;;;;;;;5019680;28;20076;-65
2023/07/31 09:16:14;;;;;;;10.05;3.42;;;;;;;;;;5027288;28;20068;-67
2023/07/31 09:19:06;;;;;;;9.75;3.95;;;;;;;;;;5024291;28;20491;-65
2023/07/31 09:21:32;;;;;;;13.35;3.38;;;;;;;;;;5021986;28;20528;-66
2023/07/31 09:23:58;;;;;;;33.40;4.18;;;;;;;;;;5014507;28;20052;-66
2023/07/31 09:26:37;;;;;;;13.40;2.95;;;;;;;;;;5028948;28;20045;-67
2023/07/31 09:29:18;;;;;;;13.50;3.22;;;;;;;;;;5027799;28;20053;-66
2023/07/31 09:31:44;;;;;;;14.68;3.63;;;;;;;;;;5023287;28;20046;-67
2023/07/31 09:34:11;;;;;;;11.85;3.33;;;;;;;;;;5042579;28;20521;-65
2023/07/31 09:36:45;;;;;;;13.40;3.58;;;;;;;;;;5018007;28;20564;-66
2023/07/31 09:39:12;;;;;;;10.68;3.42;;;;;;;;;;5031133;28;20049;-66
2023/07/31 09:41:40;;;;;;;8.95;3.38;;;;;;;;;;5028300;28;20041;-66
2023/07/31 09:44:07;;;;;;;15.73;3.50;;;;;;;;;;5029600;28;20049;-65
2023/07/31 09:46:38;;;;;;;16.45;3.45;;;;;;;;;;5027681;28;20084;-66
2023/07/31 09:49:12;;;;;;;10.63;3.05;;;;;;;;;;5027248;28;20057;-67
2023/07/31 09:51:38;;;;;;;;;;;;;;;;;;5032206;28;20079;-63
2023/07/31 09:54:15;;;;;;;11.68;2.95;;;;;;;;;;5025528;28;19929;-66
2023/07/31 09:56:48;;;;;;;14.93;3.20;;;;;;;;;;5025396;28;20133;-64
2023/07/31 09:59:19;;;;;;;10.63;2.90;;;;;;;;;;5026596;28;20050;-67
2023/07/31 10:01:46;;;;;;;11.90;2.60;;;;;;;;;;5021612;28;20054;-66
2023/07/31 10:04:14;;;;;;;12.13;2.67;;;;;;;;;;5022117;28;20107;-67
2023/07/31 10:06:43;;;;;;;9.65;2.78;;;;;;;;;;5026270;28;20077;-70
2023/07/31 10:09:14;;;;;;;9.32;2.80;;;;;;;;;;5024607;28;20472;-69
2023/07/31 10:11:50;;;;;;;14.60;3.17;;;;;;;;;;5027085;28;20042;-70
2023/07/31 10:14:20;;;;;;;7.82;2.65;;;;;;;;;;5026801;28;20525;-69
2023/07/31 10:16:47;;;;;;;15.07;2.90;;;;;;;;;;5027199;28;20127;-71
2023/07/31 10:19:13;;;;;;;13.73;3.20;;;;;;;;;;5028673;28;20049;-68
2023/07/31 10:21:41;;;;;;;10.02;2.95;;;;;;;;;;5024543;28;20064;-68
2023/07/31 10:24:09;;;;;;;11.40;2.90;;;;;;;;;;5014697;28;20518;-68
2023/07/31 10:26:37;;;;;;;14.35;2.92;;;;;;;;;;5025981;28;20127;-70
2023/07/31 10:29:05;;;;;;;10.70;3.42;;;;;;;;;;5024334;28;20054;-69
2023/07/31 10:31:32;;;;;;;10.10;3.40;;;;;;;;;;5024013;28;20053;-69
2023/07/31 10:33:59;;;;;;;15.45;3.47;;;;;;;;;;5026063;28;20057;-70
2023/07/31 10:36:26;;;;;;;11.07;3.15;;;;;;;;;;5028493;28;20042;-70
2023/07/31 10:38:55;;;;;;;9.68;3.30;;;;;;;;;;5030465;28;20042;-70
2023/07/31 10:41:33;;;;;;;10.85;3.33;;;;;;;;;;5017293;28;20060;-70
2023/07/31 10:44:01;;;;;;;13.63;3.55;;;;;;;;;;5020337;28;20049;-70
2023/07/31 10:46:29;;;;;;;6.28;2.75;;;;;;;;;;5026715;28;20041;-71
2023/07/31 10:49:00;;;;;;;11.93;3.75;;;;;;;;;;5028267;28;20096;-70
2023/07/31 10:51:34;;;;;;;12.23;3.47;;;;;;;;;;5025399;28;20057;-70
2023/07/31 10:54:15;;;;;;;13.13;3.30;;;;;;;;;;5029164;28;20056;-70
2023/07/31 10:56:46;;;;;;;9.40;3.10;;;;;;;;;;5024796;28;20068;-70
2023/07/31 10:59:13;;;;;;;13.68;3.53;;;;;;;;;;5021680;28;20053;-69
2023/07/31 11:01:53;;;;;;;13.52;3.50;;;;;;;;;;5027062;28;20392;-69
2023/07/31 11:04:27;;;;;;;21.85;4.18;;;;;;;;;;5025736;28;20054;-70
2023/07/31 11:07:00;;;;;;;12.27;3.10;;;;;;;;;;5028940;28;20510;-69
2023/07/31 11:09:30;;;;;;;;;;;;;;;;;;5025911;28;20052;-67
2023/07/31 11:11:56;;;;;;;15.02;4.00;;;;;;;;;;5024276;28;19921;-69
2023/07/31 11:14:23;;;;;;;10.70;3.70;;;;;;;;;;5019898;28;20415;-67
2023/07/31 11:16:51;;;;;;;12.23;3.40;;;;;;;;;;5017307;28;20472;-69
2023/07/31 11:19:27;;;;;;;11.68;3.38;;;;;;;;;;5027711;28;20041;-67
2023/07/31 11:21:53;;;;;;;9.15;3.10;;;;;;;;;;5024782;28;20582;-67
2023/07/31 11:24:19;;;;;;;11.30;3.33;;;;;;;;;;5027685;28;20057;-66
2023/07/31 11:26:52;;;;;;;9.27;3.38;;;;;;;;;;5026513;28;20084;-71
2023/07/31 11:29:19;;;;;;;9.15;3.13;;;;;;;;;;5029446;28;20399;-67
2023/07/31 11:31:46;;;;;;;8.70;2.88;;;;;;;;;;5026252;28;20049;-67
2023/07/31 11:34:12;;;;;;;13.43;3.53;;;;;;;;;;5016846;28;20115;-67
2023/07/31 11:36:38;;;;;;;14.20;3.10;;;;;;;;;;5026545;28;20045;-69
2023/07/31 11:39:06;;;;;;;8.30;3.22;;;;;;;;;;5029228;28;20053;-70
2023/07/31 11:41:32;;;;;;;10.32;3.17;;;;;;;;;;5023256;28;20045;-66
2023/07/31 11:44:02;;;;;;;14.05;2.90;;;;;;;;;;5021252;28;20128;-68
2023/07/31 11:46:31;;;;;;;12.20;3.63;;;;;;;;;;5020217;28;20099;-69
2023/07/31 11:49:00;;;;;;;9.45;2.80;;;;;;;;;;5014822;28;20041;-69
2023/07/31 11:51:29;;;;;;;11.13;3.25;;;;;;;;;;5017989;28;20061;-69
2023/07/31 11:54:01;;;;;;;7.18;2.60;;;;;;;;;;5021689;28;20044;-69
2023/07/31 11:56:28;;;;;;;7.32;3.00;;;;;;;;;;5016143;28;20046;-68
2023/07/31 11:58:59;;;;;;;8.30;2.50;;;;;;;;;;5022047;28;20480;-68
2023/07/31 12:01:27;;;;;;;15.57;3.10;;;;;;;;;;5023688;28;20472;-68
2023/07/31 12:03:54;;;;;;;10.25;3.20;;;;;;;;;;5020310;28;20053;-68
2023/07/31 12:06:22;;;;;;;13.02;3.20;;;;;;;;;;5014662;28;20053;-69
2023/07/31 12:08:48;;;;;;;13.07;3.25;;;;;;;;;;5015327;28;20518;-69
2023/07/31 12:11:15;;;;;;;7.72;2.90;;;;;;;;;;5012294;28;20045;-70
2023/07/31 12:13:40;;;;;;;13.52;3.30;;;;;;;;;;5010008;28;20486;-67
2023/07/31 12:16:07;;;;;;;11.38;2.92;;;;;;;;;;5018259;28;20044;-68
2023/07/31 12:18:35;;;;;;;12.75;2.95;;;;;;;;;;5010974;28;20427;-67
2023/07/31 12:21:05;;;;;;;11.60;3.03;;;;;;;;;;5017574;28;20128;-67
2023/07/31 12:23:33;;;;;;;13.50;3.10;;;;;;;;;;5015296;28;20046;-66
2023/07/31 12:26:04;;;;;;;12.00;3.10;;;;;;;;;;5018675;28;20399;-70
2023/07/31 12:28:34;;;;;;;10.45;3.20;;;;;;;;;;5016070;28;20458;-69
2023/07/31 12:31:00;;;;;;;9.93;3.25;;;;;;;;;;5018481;28;20168;-67
2023/07/31 12:33:34;;;;;;;8.90;2.88;;;;;;;;;;5018081;28;20061;-69
2023/07/31 12:36:01;;;;;;;;;;;;;;;;;;5020849;28;20058;-66
2023/07/31 12:38:27;;;;;;;11.68;3.33;;;;;;;;;;5019697;28;19921;-67
2023/07/31 12:40:53;;;;;;;12.07;3.20;;;;;;;;;;5019943;28;20049;-68
2023/07/31 12:43:19;;;;;;;11.55;2.95;;;;;;;;;;5018493;28;20056;-68
2023/07/31 12:45:47;;;;;;;8.40;2.83;;;;;;;;;;5021646;28;20057;-69
2023/07/31 12:48:13;;;;;;;10.27;2.88;;;;;;;;;;5017969;28;20045;-69
2023/07/31 12:50:39;;;;;;;9.35;2.97;;;;;;;;;;5022575;28;20499;-68
2023/07/31 12:53:05;;;;;;;9.95;2.97;;;;;;;;;;5020186;28;20084;-68
2023/07/31 12:55:36;;;;;;;11.00;3.10;;;;;;;;;;5023330;28;20037;-67
2023/07/31 12:58:02;;;;;;;10.70;3.10;;;;;;;;;;5017482;28;20066;-67
2023/07/31 13:00:29;;;;;;;16.35;3.45;;;;;;;;;;5022711;28;20057;-68
2023/07/31 13:02:55;;;;;;;9.52;3.00;;;;;;;;;;5054098;28;20425;-68
2023/07/31 13:05:21;;;;;;;9.10;2.72;;;;;;;;;;5024563;28;20100;-68
2023/07/31 13:07:47;;;;;;;7.70;3.05;;;;;;;;;;5025378;28;20458;-68
2023/07/31 13:10:15;;;;;;;9.05;3.03;;;;;;;;;;5025153;28;20045;-67
2023/07/31 13:12:41;;;;;;;10.07;3.13;;;;;;;;;;5024158;28;20087;-68
2023/07/31 13:15:07;;;;;;;11.43;3.13;;;;;;;;;;5023663;28;20423;-67
2023/07/31 13:17:34;;;;;;;8.85;2.85;;;;;;;;;;5021314;28;20494;-70
2023/07/31 13:20:01;;;;;;;6.90;2.72;;;;;;;;;;5023884;28;20430;-65
2023/07/31 13:22:27;;;;;;;10.93;2.70;;;;;;;;;;5019585;28;20037;-69
2023/07/31 13:24:56;;;;;;;6.28;2.67;;;;;;;;;;5021009;28;20404;-65
2023/07/31 13:27:24;;;;;;;8.57;3.15;;;;;;;;;;5025839;28;20049;-67
2023/07/31 13:29:53;;;;;;;9.27;2.63;;;;;;;;;;5021982;28;20132;-63
2023/07/31 13:32:20;;;;;;;6.30;2.80;;;;;;;;;;5022742;28;20053;-65
2023/07/31 13:34:47;;;;;;;8.32;2.60;;;;;;;;;;5023965;28;20068;-63
2023/07/31 13:37:14;;;;;;;12.18;2.70;;;;;;;;;;5023279;28;20045;-66
2023/07/31 13:39:42;;;;;;;11.23;2.75;;;;;;;;;;5021781;28;20055;-69
2023/07/31 13:42:08;;;;;;;10.10;2.67;;;;;;;;;;5023259;28;20041;-66
2023/07/31 13:44:35;;;;;;;9.38;2.70;;;;;;;;;;5025780;28;20621;-67
2023/07/31 13:47:01;;;;;;;11.32;2.75;;;;;;;;;;5023539;28;20041;-64
2023/07/31 13:49:28;;;;;;;9.52;2.70;;;;;;;;;;5022720;28;20057;-68
2023/07/31 13:51:54;;;;;;;7.60;2.50;;;;;;;;;;5022932;28;20903;-70
2023/07/31 13:54:20;;;;;;;8.20;2.70;;;;;;;;;;5021370;28;20061;-65
2023/07/31 13:56:48;;;;;;;9.43;3.20;;;;;;;;;;5023600;28;20515;-66
2023/07/31 13:59:16;;;;;;;11.68;3.08;;;;;;;;;;5020030;28;20174;-67
2023/07/31 14:01:42;;;;;;;11.30;3.00;;;;;;;;;;5020352;28;20226;-66
2023/07/31 14:04:08;;;;;;;9.90;2.92;;;;;;;;;;5021647;28;20063;-65
2023/07/31 14:06:34;;;;;;;9.35;2.72;;;;;;;;;;5021000;28;20057;-65
2023/07/31 14:09:00;;;;;;;8.98;2.38;;;;;;;;;;5021188;28;20046;-68
2023/07/31 14:11:26;;;;;;;7.85;2.85;;;;;;;;;;5025719;28;20053;-66
2023/07/31 14:13:54;;;;;;;11.90;2.78;;;;;;;;;;5023821;28;20061;-66
2023/07/31 14:16:19;;;;;;;11.05;3.13;;;;;;;;;;5025255;28;20053;-66
2023/07/31 14:18:45;;;;;;;9.40;2.80;;;;;;;;;;5022466;28;20041;-67
2023/07/31 14:21:12;;;;;;;9.80;2.72;;;;;;;;;;5015707;28;20137;-66
2023/07/31 14:23:38;;;;;;;8.90;2.83;;;;;;;;;;5029475;28;20045;-65
2023/07/31 14:26:04;;;;;;;9.35;2.65;;;;;;;;;;5027525;28;20466;-67
2023/07/31 14:28:30;;;;;;;10.73;2.90;;;;;;;;;;5055599;28;20104;-66
2023/07/31 14:30:56;;;;;;;12.73;3.30;;;;;;;;;;5025723;28;20049;-70
2023/07/31 14:33:22;;;;;;;11.13;2.75;;;;;;;;;;5020789;28;20113;-66